Time;durP1;ratioP1;P1;durP2;ratioP2;P2;SDS_P1;SDS_P2;PMS_P1;PMS_P2;Temp;Humidity;BMP_temperature;BMP_pressure;BME280_temperature;BME280_humidity;BME280_pressure;Samples;Min_cycle;Max_cycle;Signal;HPM_P1;HPM_P2
2023/05/13 00:01:57;;;;;;;;;;;;;;;22.18;51.54;101365.13;2349438;75;50632;-72
2023/05/13 00:04:59;;;;;;;;;;;;;;;22.18;51.56;101377.25;2324480;75;51197;-72
2023/05/13 00:08:05;;;;;;;;;;;;;;;22.17;51.59;101375.08;2353548;75;50299;-72
2023/05/13 00:11:04;;;;;;;;;;;;;;;22.17;51.63;101371.55;2355294;74;22318;-72
2023/05/13 00:14:08;;;;;;;;;;;;;;;22.16;51.67;101363.13;2356383;75;51479;-73
2023/05/13 00:17:09;;;;;;;;;;;;;;;22.17;51.72;101372.91;2355427;74;22465;-73
2023/05/13 00:20:11;;;;;;;;;;;;;;;22.15;51.97;101360.12;2349904;75;50411;-72
2023/05/13 00:23:13;;;;;;;;;;;;;;;22.13;52.01;101363.51;2343079;75;51338;-72
2023/05/13 00:26:15;;;;;;;;;;;;;;;22.15;51.97;101369.03;2342945;75;50774;-72
2023/05/13 00:29:16;;;;;;;;;;;;;;;22.15;52.00;101366.86;2375417;74;51171;-72
2023/05/13 00:32:18;;;;;;;;;;;;;;;22.15;52.00;101376.30;2347748;75;50628;-72
2023/05/13 00:35:19;;;;;;;;;;;;;;;22.16;52.01;101372.56;2351728;74;51420;-72
2023/05/13 00:38:21;;;;;;;;;;;;;;;22.17;51.98;101377.77;2353014;75;51430;-72
2023/05/13 00:41:22;;;;;;;;;;;;;;;22.15;51.99;101377.13;2378865;73;51044;-72
2023/05/13 00:44:24;;;;;;;;;;;;;;;22.13;52.09;101379.16;2353905;74;51465;-71
2023/05/13 00:47:26;;;;;;;;;;;;;;;22.14;52.05;101384.03;2355731;75;51454;-72
2023/05/13 00:50:27;;;;;;;;;;;;;;;22.15;52.06;101389.77;2354029;75;51440;-72
2023/05/13 00:53:30;;;;;;;;;;;;;;;22.15;52.06;101390.59;2379741;74;52491;-72
2023/05/13 00:56:31;;;;;;;;;;;;;;;22.15;52.09;101392.46;2338236;75;50232;-72
2023/05/13 00:59:33;;;;;;;;;;;;;;;22.13;52.08;101391.30;2338037;75;50636;-72
2023/05/13 01:02:36;;;;;;;;;;;;;;;22.15;52.08;101395.16;2363209;75;51420;-72
2023/05/13 01:05:42;;;;;;;;;;;;;;;22.15;52.02;101395.16;2358823;74;51467;-72
2023/05/13 01:08:48;;;;;;;;;;;;;;;22.17;52.02;101402.03;2353758;75;51632;-73
2023/05/13 01:11:50;;;;;;;;;;;;;;;22.15;52.01;101393.30;2354084;75;50766;-72
2023/05/13 01:14:54;;;;;;;;;;;;;;;22.14;52.09;101398.86;2353981;75;51455;-72
2023/05/13 01:18:12;;;;;;;;;;;;;;;22.15;52.02;101400.03;2353862;75;50322;-73
2023/05/13 01:21:14;;;;;;;;;;;;;;;22.16;52.08;101405.73;2353453;75;50782;-72
2023/05/13 01:24:15;;;;;;;;;;;;;;;22.12;52.03;101401.77;2353956;75;51440;-72
2023/05/13 01:27:17;;;;;;;;;;;;;;;22.13;52.00;101405.28;2353867;75;52333;-73
2023/05/13 01:30:18;;;;;;;;;;;;;;;22.13;52.03;101407.98;2354358;75;51406;-72
2023/05/13 01:33:20;;;;;;;;;;;;;;;22.13;52.06;101417.42;2354282;75;51438;-73
2023/05/13 01:36:21;;;;;;;;;;;;;;;22.13;52.05;101418.25;2351989;75;50348;-73
2023/05/13 01:39:23;;;;;;;;;;;;;;;22.12;52.05;101416.59;2353591;75;50257;-71
2023/05/13 01:42:25;;;;;;;;;;;;;;;22.13;52.11;101424.98;2353850;74;50467;-72
2023/05/13 01:45:29;;;;;;;;;;;;;;;22.12;52.13;101422.50;2378881;74;51634;-74
2023/05/13 01:48:31;;;;;;;;;;;;;;;22.12;52.20;101425.19;2355574;75;51456;-72
2023/05/13 01:51:32;;;;;;;;;;;;;;;22.13;52.19;101426.85;2353644;75;52136;-72
2023/05/13 01:54:34;;;;;;;;;;;;;;;22.13;52.25;101425.50;2356004;74;50257;-73
2023/05/13 01:57:36;;;;;;;;;;;;;;;22.12;52.13;101429.23;2327256;74;51201;-73
2023/05/13 02:00:37;;;;;;;;;;;;;;;22.11;52.17;101418.94;2355797;75;50778;-73
2023/05/13 02:03:39;;;;;;;;;;;;;;;22.12;52.21;101418.45;2356041;74;50241;-74
2023/05/13 02:06:40;;;;;;;;;;;;;;;22.11;52.23;101422.16;2351911;74;50290;-73
2023/05/13 02:09:42;;;;;;;;;;;;;;;22.11;52.21;101423.50;2348574;75;50632;-73
2023/05/13 02:12:44;;;;;;;;;;;;;;;22.11;52.18;101418.11;2347587;75;50249;-73
2023/05/13 02:15:45;;;;;;;;;;;;;;;22.10;52.17;101424.53;2343050;75;50225;-73
2023/05/13 02:18:47;;;;;;;;;;;;;;;22.11;52.21;101428.89;2347509;75;50665;-73
2023/05/13 02:21:48;;;;;;;;;;;;;;;22.09;52.17;101422.36;2374980;74;50964;-73
2023/05/13 02:24:50;;;;;;;;;;;;;;;22.09;52.15;101425.54;2347697;75;51419;-73
2023/05/13 02:27:52;;;;;;;;;;;;;;;22.09;52.19;101423.70;2342877;75;51399;-73
2023/05/13 02:30:53;;;;;;;;;;;;;;;22.08;52.16;101422.02;2343087;75;50367;-73
2023/05/13 02:33:55;;;;;;;;;;;;;;;22.08;52.13;101423.87;2374821;74;51645;-73
2023/05/13 02:36:56;;;;;;;;;;;;;;;22.08;52.20;101427.41;2352098;75;51467;-74
2023/05/13 02:39:58;;;;;;;;;;;;;;;22.08;52.22;101431.97;2347322;75;53711;-73
2023/05/13 02:42:59;;;;;;;;;;;;;;;22.07;52.21;101428.44;2343135;76;51372;-73
2023/05/13 02:46:02;;;;;;;;;;;;;;;22.08;52.24;101427.92;2320696;76;51129;-73
2023/05/13 02:49:04;;;;;;;;;;;;;;;22.08;52.27;101427.92;2342932;75;50318;-73
2023/05/13 02:52:06;;;;;;;;;;;;;;;22.08;52.29;101435.48;2343204;75;50065;-73
2023/05/13 02:55:08;;;;;;;;;;;;;;;22.08;52.29;101431.45;2347588;75;50355;-72
2023/05/13 02:58:09;;;;;;;;;;;;;;;22.09;52.33;101434.97;2310739;76;50966;-73
2023/05/13 03:01:11;;;;;;;;;;;;;;;22.07;52.28;101433.83;2329456;75;51400;-73
2023/05/13 03:04:13;;;;;;;;;;;;;;;22.08;52.31;101432.80;2325279;75;51406;-73
2023/05/13 03:07:14;;;;;;;;;;;;;;;22.08;52.35;101444.09;2337343;74;49937;-73
2023/05/13 03:10:16;;;;;;;;;;;;;;;22.07;52.35;101441.09;2321398;75;51131;-73
2023/05/13 03:13:17;;;;;;;;;;;;;;;22.07;52.38;101449.17;2349205;74;50651;-74
2023/05/13 03:16:19;;;;;;;;;;;;;;;22.06;52.36;101453.70;2348248;75;50130;-73
2023/05/13 03:19:20;;;;;;;;;;;;;;;22.07;52.35;101446.48;2350328;74;50107;-72
2023/05/13 03:22:22;;;;;;;;;;;;;;;22.06;52.39;101449.66;2322908;75;51667;-72
2023/05/13 03:25:24;;;;;;;;;;;;;;;22.06;52.39;101448.31;2349052;74;51429;-73
2023/05/13 03:28:26;;;;;;;;;;;;;;;22.06;52.40;101448.31;2353245;75;50223;-73
2023/05/13 03:31:27;;;;;;;;;;;;;;;22.06;52.41;101449.66;2349165;74;50628;-73
2023/05/13 03:34:29;;;;;;;;;;;;;;;22.06;52.41;101450.17;2321731;75;52622;-73
2023/05/13 03:37:31;;;;;;;;;;;;;;;22.07;52.41;101454.56;2341995;75;50262;-73
2023/05/13 03:40:32;;;;;;;;;;;;;;;22.06;52.42;101456.91;2356266;75;50730;-73
2023/05/13 03:43:34;;;;;;;;;;;;;;;22.06;52.37;101455.56;2354059;75;50280;-73
2023/05/13 03:46:36;;;;;;;;;;;;;;;22.05;52.32;101461.99;2378994;74;51711;-74
2023/05/13 03:49:37;;;;;;;;;;;;;;;22.04;52.36;101458.95;2354304;75;50264;-73
2023/05/13 03:52:39;;;;;;;;;;;;;;;22.03;52.41;101457.30;2356155;75;50252;-73
2023/05/13 03:55:40;;;;;;;;;;;;;;;22.04;52.36;101461.64;2356296;75;50616;-73
2023/05/13 03:58:42;;;;;;;;;;;;;;;22.03;52.42;101464.03;2355984;75;51480;-72
2023/05/13 04:01:44;;;;;;;;;;;;;;;22.03;52.38;101464.86;2354280;75;50345;-72
2023/05/13 04:04:45;;;;;;;;;;;;;;;22.03;52.41;101468.08;2355994;74;52035;-73
2023/05/13 04:07:47;;;;;;;;;;;;;;;22.03;52.46;101470.77;2341703;75;50128;-72
2023/05/13 04:10:48;;;;;;;;;;;;;;;22.03;52.42;101481.55;2329119;75;51595;-72
2023/05/13 04:13:50;;;;;;;;;;;;;;;22.04;52.45;101479.16;2356361;75;51535;-72
2023/05/13 04:16:52;;;;;;;;;;;;;;;22.04;52.42;101488.11;2356043;74;50451;-73
2023/05/13 04:19:53;;;;;;;;;;;;;;;22.04;52.42;101487.25;2354098;75;50727;-72
2023/05/13 04:22:55;;;;;;;;;;;;;;;22.04;52.42;101492.16;2327970;75;51021;-72
2023/05/13 04:25:56;;;;;;;;;;;;;;;22.04;52.45;101500.73;2355959;74;50467;-73
2023/05/13 04:28:58;;;;;;;;;;;;;;;22.04;52.42;101497.55;2354023;75;50242;-72
2023/05/13 04:32:00;;;;;;;;;;;;;;;22.04;52.42;101502.08;2356266;75;50282;-72
2023/05/13 04:35:01;;;;;;;;;;;;;;;22.03;52.45;101503.11;2379023;74;51193;-73
2023/05/13 04:38:04;;;;;;;;;;;;;;;22.03;52.51;101507.98;2329151;75;49952;-72
2023/05/13 04:41:05;;;;;;;;;;;;;;;22.03;52.51;101506.63;2353254;75;51589;-72
2023/05/13 04:44:07;;;;;;;;;;;;;;;22.06;52.38;101510.81;2353451;75;50679;-72
2023/05/13 04:47:09;;;;;;;;;;;;;;;22.04;52.42;101510.16;2378646;74;52479;-72
2023/05/13 04:50:10;;;;;;;;;;;;;;;22.04;52.34;101514.20;2355986;75;51610;-73
2023/05/13 04:53:12;;;;;;;;;;;;;;;22.03;52.29;101519.28;2355922;74;50063;-73
2023/05/13 04:56:15;;;;;;;;;;;;;;;22.03;52.26;101523.32;2355680;75;51459;-73
2023/05/13 04:59:16;;;;;;;;;;;;;;;22.04;52.16;101520.94;2353775;75;50612;-74
2023/05/13 05:02:18;;;;;;;;;;;;;;;22.04;52.27;101525.84;2355875;75;50334;-73
2023/05/13 05:05:20;;;;;;;;;;;;;;;22.04;52.43;101527.67;2356818;74;51427;-73
2023/05/13 05:08:21;;;;;;;;;;;;;;;22.09;52.59;101521.22;2353316;74;50770;-73
2023/05/13 05:11:23;;;;;;;;;;;;;;;22.16;52.47;101528.90;2326003;73;52557;-73
2023/05/13 05:14:25;;;;;;;;;;;;;;;22.23;52.48;101532.56;2352766;75;51396;-73
2023/05/13 05:17:31;;;;;;;;;;;;;;;22.31;52.21;101535.68;2354406;74;50753;-73
2023/05/13 05:20:30;;;;;;;;;;;;;;;22.37;51.91;101537.10;2349579;74;22257;-73
2023/05/13 05:23:31;;;;;;;;;;;;;;;22.42;51.68;101532.50;2331881;74;52414;-73
2023/05/13 05:26:33;;;;;;;;;;;;;;;22.49;51.35;101538.00;2354349;74;50233;-73
2023/05/13 05:29:34;;;;;;;;;;;;;;;22.55;51.13;101531.84;2355181;74;50298;-73
2023/05/13 05:32:36;;;;;;;;;;;;;;;22.60;50.79;101535.64;2326068;75;50716;-74
2023/05/13 05:35:38;;;;;;;;;;;;;;;22.65;50.47;101533.73;2358308;74;51458;-73
2023/05/13 05:38:40;;;;;;;;;;;;;;;22.73;50.31;101546.28;2325990;74;51489;-72
2023/05/13 05:41:42;;;;;;;;;;;;;;;22.78;50.08;101536.58;2355940;74;50298;-73
2023/05/13 05:44:44;;;;;;;;;;;;;;;22.83;49.86;101544.95;2355127;74;50285;-71
2023/05/13 05:47:45;;;;;;;;;;;;;;;22.86;50.01;101539.69;2356434;73;51654;-73
2023/05/13 05:50:47;;;;;;;;;;;;;;;22.91;49.90;101538.60;2323863;75;51435;-72
2023/05/13 05:53:49;;;;;;;;;;;;;;;22.99;49.69;101546.64;2355557;73;50326;-73
2023/05/13 05:56:51;;;;;;;;;;;;;;;23.04;49.40;101547.39;2353325;74;49944;-73
2023/05/13 05:59:52;;;;;;;;;;;;;;;23.08;49.36;101547.34;2304320;75;51660;-72
2023/05/13 06:02:55;;;;;;;;;;;;;;;23.13;49.21;101557.58;2296249;75;51020;-73
2023/05/13 06:05:57;;;;;;;;;;;;;;;23.21;49.09;101552.05;2339289;75;50522;-74
2023/05/13 06:08:59;;;;;;;;;;;;;;;23.36;48.89;101547.95;2337078;75;50239;-74
2023/05/13 06:12:00;;;;;;;;;;;;;;;23.51;45.04;101554.12;2310730;76;49528;-74
2023/05/13 06:15:05;;;;;;;;;;;;;;;23.21;38.39;101547.48;2337773;75;50028;-74
2023/05/13 06:18:05;;;;;;;;;;;;;;;22.89;34.93;101550.61;2327029;75;22944;-75
2023/05/13 06:21:07;;;;;;;;;;;;;;;22.75;34.97;101551.81;2345083;74;51309;-74
2023/05/13 06:24:09;;;;;;;;;;;;;;;22.59;34.01;101569.05;2345883;74;52388;-73
2023/05/13 06:27:11;;;;;;;;;;;;;;;22.29;32.67;101557.94;2331290;75;51933;-73
2023/05/13 06:30:12;;;;;;;;;;;;;;;22.12;35.08;101554.57;2359167;74;50376;-73
2023/05/13 06:33:14;;;;;;;;;;;;;;;22.24;35.44;101563.88;2334708;75;50219;-73
2023/05/13 06:36:15;;;;;;;;;;;;;;;22.39;36.32;101553.11;2308354;75;51416;-72
2023/05/13 06:39:17;;;;;;;;;;;;;;;22.52;36.89;101552.45;2334930;75;49928;-73
2023/05/13 06:42:19;;;;;;;;;;;;;;;22.56;37.43;101550.55;2359726;75;50634;-77
2023/05/13 06:45:22;;;;;;;;;;;;;;;22.70;37.69;101542.61;2335000;75;50330;-76
2023/05/13 06:48:23;;;;;;;;;;;;;;;22.74;38.30;101543.92;2328795;74;51750;-75
2023/05/13 06:51:27;;;;;;;;;;;;;;;22.83;38.69;101541.42;2335343;74;51452;-73
2023/05/13 06:54:29;;;;;;;;;;;;;;;22.82;38.90;101533.02;2335523;75;51505;-73
2023/05/13 06:57:31;;;;;;;;;;;;;;;22.88;39.27;101527.36;2319683;76;51414;-72
2023/05/13 07:00:32;;;;;;;;;;;;;;;22.90;39.18;101536.94;2316583;74;53207;-73
2023/05/13 07:03:34;;;;;;;;;;;;;;;22.92;39.47;101534.06;2350967;75;50351;-79
2023/05/13 07:06:35;;;;;;;;;;;;;;;22.92;40.00;101530.02;2352841;74;50257;-75
2023/05/13 07:09:37;;;;;;;;;;;;;;;22.97;40.32;101527.61;2353204;74;50480;-76
2023/05/13 07:12:38;;;;;;;;;;;;;;;22.97;40.63;101528.97;2355645;74;51661;-73
2023/05/13 07:15:40;;;;;;;;;;;;;;;23.01;41.00;101514.87;2360055;75;50382;-73
2023/05/13 07:18:42;;;;;;;;;;;;;;;23.04;40.76;101513.65;2331128;75;50631;-72
2023/05/13 07:21:43;;;;;;;;;;;;;;;23.03;41.04;101508.77;2331458;75;49944;-73
2023/05/13 07:24:45;;;;;;;;;;;;;;;23.08;41.10;101510.08;2359166;75;50631;-73
2023/05/13 07:27:46;;;;;;;;;;;;;;;23.07;41.36;101509.24;2305307;75;51579;-73
2023/05/13 07:30:48;;;;;;;;;;;;;;;23.07;41.41;101511.95;2359761;74;51453;-73
2023/05/13 07:33:50;;;;;;;;;;;;;;;23.06;41.57;101509.42;2331622;74;50720;-72
2023/05/13 07:36:51;;;;;;;;;;;;;;;23.08;41.66;101508.20;2361745;74;52442;-73
2023/05/13 07:39:53;;;;;;;;;;;;;;;23.06;41.70;101505.38;2331438;75;51455;-73
2023/05/13 07:42:54;;;;;;;;;;;;;;;23.07;41.80;101509.73;2331437;74;51385;-73
2023/05/13 07:45:56;;;;;;;;;;;;;;;23.07;41.86;101501.64;2360287;75;51385;-73
2023/05/13 07:48:58;;;;;;;;;;;;;;;23.06;41.94;101502.67;2335023;75;52338;-73
2023/05/13 07:52:00;;;;;;;;;;;;;;;23.08;41.88;101502.80;2359574;75;51389;-73
2023/05/13 07:55:01;;;;;;;;;;;;;;;23.06;41.95;101508.91;2360074;74;51425;-73
2023/05/13 07:58:03;;;;;;;;;;;;;;;23.07;42.00;101497.58;2360191;75;50395;-73
2023/05/13 08:01:04;;;;;;;;;;;;;;;23.08;42.05;101495.23;2338197;75;52430;-73
2023/05/13 08:04:06;;;;;;;;;;;;;;;23.07;42.13;101489.00;2367208;75;51249;-73
2023/05/13 08:07:08;;;;;;;;;;;;;;;23.07;42.19;101490.84;2366907;75;51515;-73
2023/05/13 08:10:09;;;;;;;;;;;;;;;23.06;42.13;101490.53;2367406;75;51458;-73
2023/05/13 08:13:11;;;;;;;;;;;;;;;23.06;42.22;101492.70;2338324;75;50370;-73
2023/05/13 08:16:12;;;;;;;;;;;;;;;23.05;42.30;101493.75;2338111;75;50760;-73
2023/05/13 08:19:14;;;;;;;;;;;;;;;23.05;42.43;101504.55;2338310;74;51594;-73
2023/05/13 08:22:16;;;;;;;;;;;;;;;23.03;42.44;101494.45;2367355;75;51375;-73
2023/05/13 08:25:18;;;;;;;;;;;;;;;23.04;42.44;101498.80;2337883;74;51373;-73
2023/05/13 08:28:20;;;;;;;;;;;;;;;23.04;42.49;101510.95;2337577;75;50295;-73
2023/05/13 08:31:23;;;;;;;;;;;;;;;23.02;42.52;101500.89;2338297;75;51644;-73
2023/05/13 08:34:25;;;;;;;;;;;;;;;23.02;42.53;101495.48;2367271;75;24736;-72
2023/05/13 08:37:27;;;;;;;;;;;;;;;23.01;42.70;101504.08;2311449;75;51115;-72
2023/05/13 08:40:28;;;;;;;;;;;;;;;23.02;42.67;101506.28;2367154;74;51573;-72
2023/05/13 08:43:30;;;;;;;;;;;;;;;23.00;42.72;101505.63;2367019;74;50268;-72
2023/05/13 08:46:32;;;;;;;;;;;;;;;22.99;42.81;101505.30;2366969;74;50298;-72
2023/05/13 08:49:34;;;;;;;;;;;;;;;23.01;42.80;101511.34;2369244;74;52639;-72
2023/05/13 08:52:35;;;;;;;;;;;;;;;23.03;42.72;101509.29;2366955;74;50714;-72
2023/05/13 08:55:39;;;;;;;;;;;;;;;23.01;42.89;101512.69;2367280;74;51461;-73
2023/05/13 08:58:40;;;;;;;;;;;;;;;23.00;42.96;101507.81;2366626;74;51563;-73
2023/05/13 09:01:42;;;;;;;;;;;;;;;23.00;42.88;101509.69;2369370;74;52323;-73
2023/05/13 09:04:44;;;;;;;;;;;;;;;22.99;42.92;101508.85;2367127;74;50715;-73
2023/05/13 09:07:45;;;;;;;;;;;;;;;22.97;43.02;101507.38;2366902;74;51574;-72
2023/05/13 09:10:47;;;;;;;;;;;;;;;22.97;43.02;101507.38;2367118;74;51506;-73
2023/05/13 09:13:57;;;;;;;;;;;;;;;22.94;43.11;101507.70;2369133;74;51061;-72
2023/05/13 09:16:59;;;;;;;;;;;;;;;22.91;43.14;101499.98;2367257;74;50754;-72
2023/05/13 09:20:02;;;;;;;;;;;;;;;22.92;43.09;101505.73;2367038;74;51428;-73
2023/05/13 09:23:05;;;;;;;;;;;;;;;22.90;43.19;101492.93;2366232;74;50677;-73
2023/05/13 09:26:06;;;;;;;;;;;;;;;22.87;43.31;101486.05;2368908;75;52490;-72
2023/05/13 09:29:17;;;;;;;;;;;;;;;22.85;43.39;101489.97;2337494;75;50747;-73
2023/05/13 09:32:19;;;;;;;;;;;;;;;22.81;43.25;101483.61;2338215;74;51543;-73
2023/05/13 09:35:21;;;;;;;;;;;;;;;22.81;43.40;101479.56;2366888;74;51508;-73
2023/05/13 09:38:26;;;;;;;;;;;;;;;22.79;43.40;101479.44;2368425;74;52309;-73
2023/05/13 09:41:28;;;;;;;;;;;;;;;22.78;43.31;101480.44;2338084;75;51590;-72
2023/05/13 09:44:29;;;;;;;;;;;;;;;22.79;43.39;101482.96;2366881;74;51412;-73
2023/05/13 09:47:31;;;;;;;;;;;;;;;22.77;43.38;101478.78;2366327;74;51422;-73
2023/05/13 09:50:32;;;;;;;;;;;;;;;22.76;43.23;101483.84;2368849;74;51139;-72
2023/05/13 09:53:34;;;;;;;;;;;;;;;22.75;43.37;101477.61;2337540;75;51509;-74
2023/05/13 09:56:36;;;;;;;;;;;;;;;22.74;43.25;101481.34;2366718;75;51503;-72
2023/05/13 09:59:37;;;;;;;;;;;;;;;22.74;43.34;101482.70;2366640;74;50705;-72
2023/05/13 10:02:39;;;;;;;;;;;;;;;22.74;43.51;101498.05;2368641;74;52632;-73
2023/05/13 10:05:40;;;;;;;;;;;;;;;22.71;43.56;101473.64;2366748;75;51437;-73
2023/05/13 10:08:42;;;;;;;;;;;;;;;22.70;43.54;101470.60;2366139;74;50018;-72
2023/05/13 10:11:44;;;;;;;;;;;;;;;22.70;43.64;101463.86;2366844;74;50294;-72
2023/05/13 10:14:45;;;;;;;;;;;;;;;22.70;43.69;101472.47;2368789;75;51212;-72
2023/05/13 10:17:47;;;;;;;;;;;;;;;22.68;43.51;101470.47;2368170;74;51206;-73
2023/05/13 10:20:51;;;;;;;;;;;;;;;22.68;43.58;101479.39;2366327;74;50339;-73
2023/05/13 10:23:52;;;;;;;;;;;;;;;22.66;43.84;101462.59;2367030;74;22353;-73
2023/05/13 10:26:54;;;;;;;;;;;;;;;22.66;43.96;101462.59;2368710;74;51205;-74
2023/05/13 10:29:56;;;;;;;;;;;;;;;22.65;44.05;101451.97;2367166;75;50374;-73
2023/05/13 10:32:58;;;;;;;;;;;;;;;22.65;44.16;101460.89;2338282;75;50731;-73
2023/05/13 10:36:18;;;;;;;;;;;;;;;22.65;44.19;101467.64;2366870;74;50805;-73
2023/05/13 10:39:25;;;;;;;;;;;;;;;22.66;44.17;101457.67;2369053;74;53164;-73
2023/05/13 10:42:34;;;;;;;;;;;;;;;22.64;44.18;101459.23;2367236;75;51409;-73
2023/05/13 10:45:35;;;;;;;;;;;;;;;22.64;44.24;101451.66;2366630;75;50832;-72
2023/05/13 10:48:44;;;;;;;;;;;;;;;22.64;44.26;101465.98;2366713;75;50716;-72
2023/05/13 10:51:48;;;;;;;;;;;;;;;22.64;44.21;101448.97;2341008;75;52393;-72
2023/05/13 10:55:00;;;;;;;;;;;;;;;22.63;44.38;101441.36;2338102;75;50278;-72
2023/05/13 10:58:12;;;;;;;;;;;;;;;22.63;44.25;101448.11;2366557;74;50687;-72
2023/05/13 11:01:32;;;;;;;;;;;;;;;22.63;44.42;101448.62;2338107;75;51944;-72
2023/05/13 11:04:34;;;;;;;;;;;;;;;22.62;44.30;101445.09;2368627;74;51223;-73
2023/05/13 11:07:38;;;;;;;;;;;;;;;22.62;44.32;101450.49;2337322;74;50729;-73
2023/05/13 11:10:40;;;;;;;;;;;;;;;22.61;44.20;101444.27;2366691;74;51527;-73
2023/05/13 11:13:42;;;;;;;;;;;;;;;22.61;44.29;101448.83;2366813;75;50644;-73
2023/05/13 11:16:47;;;;;;;;;;;;;;;22.61;44.34;101444.27;2368505;75;52474;-72
2023/05/13 11:19:50;;;;;;;;;;;;;;;22.61;44.28;101444.78;2338204;75;50130;-73
2023/05/13 11:22:51;;;;;;;;;;;;;;;22.62;44.25;101449.14;2366593;75;50692;-74
2023/05/13 11:25:55;;;;;;;;;;;;;;;22.60;44.20;101445.80;2366894;74;51406;-73
2023/05/13 11:28:58;;;;;;;;;;;;;;;22.59;44.28;101444.13;2332232;75;52709;-73
2023/05/13 11:32:00;;;;;;;;;;;;;;;22.60;44.26;101448.49;2365474;75;50426;-73
2023/05/13 11:35:03;;;;;;;;;;;;;;;22.58;44.13;101429.81;2366497;74;50766;-73
2023/05/13 11:38:05;;;;;;;;;;;;;;;22.58;44.21;101438.40;2366447;74;50387;-73
2023/05/13 11:41:07;;;;;;;;;;;;;;;22.58;44.11;101439.75;2354050;74;52415;-73
2023/05/13 11:44:09;;;;;;;;;;;;;;;22.57;43.98;101439.44;2366577;75;50234;-74
2023/05/13 11:47:10;;;;;;;;;;;;;;;22.58;44.00;101438.40;2366381;74;50684;-73
2023/05/13 11:50:22;;;;;;;;;;;;;;;22.57;44.13;101444.83;2366670;75;51457;-72
2023/05/13 11:53:23;;;;;;;;;;;;;;;22.57;44.03;101432.69;2368506;75;52547;-72
2023/05/13 11:56:28;;;;;;;;;;;;;;;22.57;43.92;101434.05;2366446;75;51404;-73
2023/05/13 11:59:30;;;;;;;;;;;;;;;22.56;44.07;101435.08;2366416;75;50262;-72
2023/05/13 12:02:36;;;;;;;;;;;;;;;22.57;44.12;101427.30;2366671;74;50260;-72
2023/05/13 12:05:38;;;;;;;;;;;;;;;22.55;44.08;101427.48;2341281;75;52535;-73
2023/05/13 12:08:44;;;;;;;;;;;;;;;22.57;44.19;101428.65;2337605;75;50395;-73
2023/05/13 12:11:46;;;;;;;;;;;;;;;22.57;44.17;101424.60;2366993;74;51520;-74
2023/05/13 12:14:52;;;;;;;;;;;;;;;22.54;44.47;101429.03;2366831;74;51522;-72
2023/05/13 12:17:50;;;;;;;;;;;;;;;22.55;44.88;101431.52;2365725;74;22342;-73
2023/05/13 12:20:52;;;;;;;;;;;;;;;22.57;45.13;101422.73;2366582;74;51544;-73
2023/05/13 12:23:54;;;;;;;;;;;;;;;22.57;45.36;101426.78;2366455;74;51565;-73
2023/05/13 12:26:57;;;;;;;;;;;;;;;22.56;45.59;101426.47;2366409;74;51469;-73
2023/05/13 12:29:58;;;;;;;;;;;;;;;22.56;45.73;101425.12;2340085;74;51054;-73
2023/05/13 12:33:00;;;;;;;;;;;;;;;22.59;45.80;101422.55;2337901;75;51251;-73
2023/05/13 12:36:17;;;;;;;;;;;;;;;22.60;45.82;101426.39;2366595;75;50692;-73
2023/05/13 12:39:19;;;;;;;;;;;;;;;22.59;45.92;101423.91;2366277;74;51500;-73
2023/05/13 12:42:21;;;;;;;;;;;;;;;22.62;45.88;101424.86;2340228;75;51758;-73
2023/05/13 12:45:22;;;;;;;;;;;;;;;22.60;46.02;101421.52;2337986;75;50725;-73
2023/05/13 12:48:24;;;;;;;;;;;;;;;22.63;45.98;101428.39;2366980;75;51497;-73
2023/05/13 12:51:26;;;;;;;;;;;;;;;22.65;45.98;101428.52;2365206;74;50333;-72
2023/05/13 12:54:28;;;;;;;;;;;;;;;22.66;45.93;101422.61;2337896;74;50620;-73
2023/05/13 12:57:29;;;;;;;;;;;;;;;22.66;45.95;101419.42;2337736;75;51559;-73
2023/05/13 13:00:31;;;;;;;;;;;;;;;22.66;45.94;101419.42;2366763;74;51416;-73
2023/05/13 13:03:33;;;;;;;;;;;;;;;22.66;46.07;101419.42;2337564;75;51526;-73
2023/05/13 13:06:34;;;;;;;;;;;;;;;22.68;45.99;101411.95;2368709;74;52529;-73
2023/05/13 13:09:36;;;;;;;;;;;;;;;22.69;46.08;101416.34;2337360;75;50637;-73
2023/05/13 13:12:38;;;;;;;;;;;;;;;22.71;46.08;101422.38;2367022;74;51454;-73
2023/05/13 13:15:39;;;;;;;;;;;;;;;22.73;46.02;101410.03;2366834;74;50665;-73
2023/05/13 13:18:41;;;;;;;;;;;;;;;22.72;46.16;101413.25;2338252;75;52257;-73
2023/05/13 13:21:43;;;;;;;;;;;;;;;22.73;46.20;101408.68;2338198;75;50840;-73
2023/05/13 13:24:44;;;;;;;;;;;;;;;22.75;46.18;101402.59;2337989;75;51597;-73
2023/05/13 13:27:47;;;;;;;;;;;;;;;22.78;46.16;101414.34;2366857;74;51578;-74
2023/05/13 13:30:48;;;;;;;;;;;;;;;22.77;46.28;101412.16;2312504;75;52081;-73
2023/05/13 13:33:50;;;;;;;;;;;;;;;22.78;46.34;101417.86;2366970;75;50620;-73
2023/05/13 13:36:51;;;;;;;;;;;;;;;22.83;46.27;101412.72;2366893;74;51590;-73
2023/05/13 13:39:54;;;;;;;;;;;;;;;22.85;46.29;101414.41;2367370;74;51432;-73
2023/05/13 13:42:55;;;;;;;;;;;;;;;22.86;46.35;101411.50;2369507;74;51717;-74
2023/05/13 13:45:57;;;;;;;;;;;;;;;22.86;46.34;101393.96;2367775;74;51434;-73
2023/05/13 13:48:58;;;;;;;;;;;;;;;22.90;46.36;101410.63;2367095;75;51490;-73
2023/05/13 13:52:00;;;;;;;;;;;;;;;22.88;46.48;101404.05;2367758;74;51498;-73
2023/05/13 13:55:02;;;;;;;;;;;;;;;22.90;46.54;101406.58;2315956;74;52970;-73
2023/05/13 13:58:03;;;;;;;;;;;;;;;22.92;46.56;101392.38;2339680;75;51683;-72
2023/05/13 14:01:05;;;;;;;;;;;;;;;22.93;46.56;101387.29;2367748;74;51636;-72
2023/05/13 14:04:10;;;;;;;;;;;;;;;22.93;46.56;101394.04;2367979;75;50236;-72
2023/05/13 14:07:12;;;;;;;;;;;;;;;22.93;46.65;101398.09;2313220;74;51163;-73
2023/05/13 14:10:13;;;;;;;;;;;;;;;22.92;46.71;101388.33;2370940;75;50257;-72
2023/05/13 14:13:15;;;;;;;;;;;;;;;22.89;46.70;101381.46;2367534;74;50385;-72
2023/05/13 14:16:16;;;;;;;;;;;;;;;22.87;46.88;101386.20;2367510;74;50660;-73
2023/05/13 14:19:18;;;;;;;;;;;;;;;22.85;46.86;101385.56;2368232;75;51404;-73
2023/05/13 14:22:20;;;;;;;;;;;;;;;22.83;46.90;101385.74;2371096;74;50565;-73
2023/05/13 14:25:22;;;;;;;;;;;;;;;22.88;46.76;101384.34;2368149;75;50667;-71
2023/05/13 14:28:23;;;;;;;;;;;;;;;22.92;46.66;101382.41;2366935;74;50622;-72
2023/05/13 14:31:25;;;;;;;;;;;;;;;22.89;46.75;101382.80;2367593;74;50628;-73
2023/05/13 14:34:27;;;;;;;;;;;;;;;22.88;46.88;101370.33;2369318;74;51642;-73
2023/05/13 14:37:28;;;;;;;;;;;;;;;22.89;46.93;101372.02;2366733;74;51613;-71
2023/05/13 14:40:30;;;;;;;;;;;;;;;22.92;47.01;101370.79;2367068;74;51439;-71
2023/05/13 14:43:31;;;;;;;;;;;;;;;22.95;47.02;101368.52;2367093;74;50619;-71
2023/05/13 14:46:35;;;;;;;;;;;;;;;22.99;47.03;101368.98;2311761;74;52513;-72
2023/05/13 14:49:36;;;;;;;;;;;;;;;22.99;47.06;101371.69;2338622;75;22345;-72
2023/05/13 14:52:38;;;;;;;;;;;;;;;23.01;47.07;101374.52;2338315;74;51701;-72
2023/05/13 14:55:39;;;;;;;;;;;;;;;23.04;47.05;101375.98;2338313;75;50314;-72
2023/05/13 14:58:41;;;;;;;;;;;;;;;23.03;47.07;101376.51;2368354;74;52705;-73
2023/05/13 15:01:43;;;;;;;;;;;;;;;23.05;47.09;101366.88;2366935;74;51479;-73
2023/05/13 15:04:44;;;;;;;;;;;;;;;23.08;47.03;101372.41;2338121;75;50235;-73
2023/05/13 15:07:46;;;;;;;;;;;;;;;23.09;47.00;101367.31;2366796;74;50121;-73
2023/05/13 15:10:47;;;;;;;;;;;;;;;23.10;47.04;101364.42;2367033;75;50642;-73
2023/05/13 15:13:49;;;;;;;;;;;;;;;23.16;46.94;101366.33;2338021;75;50659;-73
2023/05/13 15:16:51;;;;;;;;;;;;;;;23.16;47.00;101364.98;2367021;75;51542;-72
2023/05/13 15:19:52;;;;;;;;;;;;;;;23.18;47.03;101363.45;2367145;75;50647;-72
2023/05/13 15:22:56;;;;;;;;;;;;;;;23.19;46.99;101364.58;2338187;75;50785;-72
2023/05/13 15:25:57;;;;;;;;;;;;;;;23.19;47.00;101368.63;2338974;74;22494;-73
2023/05/13 15:28:59;;;;;;;;;;;;;;;23.17;47.13;101367.16;2338196;75;51556;-73
2023/05/13 15:32:01;;;;;;;;;;;;;;;23.12;47.21;101366.91;2337987;75;51335;-73
2023/05/13 15:35:02;;;;;;;;;;;;;;;23.09;47.23;101368.14;2354040;74;52360;-72